Terminal Aerodrome Forecast
Issued by NWS Duluth, MN

Home | Current Version | Previous Version | Text Only | Print | Product List | Glossary On
Versions: 1 2 3 4 5 6 7 8 9 10 11 12 13 14 15 16
000
FTUS43 KDLH 230520
TAFINL
TAF
KINL 230520Z 2306/2406 VRB02KT P6SM BKN200
     FM231400 13008KT P6SM SCT100 BKN200
     FM232100 14010KT P6SM VCSH SCT015 BKN050 PROB30 2322/2403 5SM
      TSRA BKN015CB
     FM240400 16005KT P6SM VCSH BKN025=

USA.gov is the U.S. government's official web portal to all federal, state and local government web resources and services.